KSUN

Friedman Memorial Airport

Hailey, Idaho, USA
METAR KSUN 161347Z 29010KT 7SM FU BKN130 15/02 A3021
Observed Flight Rules
Aug-16 @ 13:47 UTC (29 minutes ago) Visual Flight Rules
Wind Visibility Clouds Conditions
290° at 10 knots 7 miles
  • Broken at 13,000' AGL
  • Smoke
Temperatures Readings
Current 15°C / 59°F
Dewpoint 2°C / 36°F
Humidity 42%
Altimeter 30.21" Hg
Pressure 1023 hPa
Elevation 1620
METAR KSUN 161347Z 29010KT 7SM FU BKN130 15/02 A3021
Observed Flight Rules
Aug-16 @ 13:47 UTC
(29 minutes ago)
VFR
Wind Visibility
290° at 10 knots 7 miles
Clouds
  • Broken at 13,000' AGL
Conditions
  • Smoke
Temperature Dewpoint
15°C / 59°F 2°C / 36°F
Humidity Altimeter Pressure
42% 30.21" Hg 1023 hPa